createdAt,value
2017-12-26T00:01:33.255Z,92.42
2017-12-26T00:04:01.941Z,92.19
2017-12-26T00:06:30.981Z,92.47
2017-12-26T00:09:00.441Z,91.54
2017-12-26T00:11:29.063Z,90.98
2017-12-26T00:13:58.585Z,91.01
2017-12-26T00:16:27.311Z,91.18
2017-12-26T00:18:55.897Z,90.88
2017-12-26T00:21:24.961Z,91.36
2017-12-26T00:23:53.675Z,92.53
2017-12-26T00:26:22.362Z,93.61
2017-12-26T00:28:51.157Z,92.92
2017-12-26T00:31:19.780Z,93.04
2017-12-26T00:33:49.241Z,93.31
2017-12-26T00:36:18.026Z,93.22
2017-12-26T00:38:46.711Z,93.67
2017-12-26T00:41:15.354Z,93.64
2017-12-26T00:43:44.246Z,93.29
2017-12-26T00:46:13.691Z,94.44
2017-12-26T00:48:42.375Z,92.94
2017-12-26T00:51:11.271Z,93.20
2017-12-26T00:53:39.895Z,92.90
2017-12-26T00:56:09.257Z,92.89
2017-12-26T00:58:38.204Z,92.88
2017-12-26T01:01:07.649Z,92.86
2017-12-26T01:03:36.313Z,93.35
2017-12-26T01:06:05.078Z,93.25
2017-12-26T01:08:34.529Z,94.79
2017-12-26T01:11:03.167Z,95.04
2017-12-26T01:13:32.656Z,94.22
2017-12-26T01:16:02.123Z,93.50
2017-12-26T01:18:30.700Z,91.68
2017-12-26T01:20:59.312Z,92.02
2017-12-26T01:23:27.871Z,92.96
2017-12-26T01:25:56.557Z,93.12
2017-12-26T01:28:25.243Z,93.48
2017-12-26T01:30:53.884Z,93.31
2017-12-26T01:33:22.615Z,93.60
2017-12-26T01:35:51.670Z,94.13
2017-12-26T01:38:20.337Z,93.74
2017-12-26T01:40:49.754Z,92.58
2017-12-26T01:43:19.247Z,92.61
2017-12-26T01:45:48.713Z,92.96
2017-12-26T01:48:17.252Z,93.92
2017-12-26T01:50:45.971Z,93.46
2017-12-26T01:53:14.657Z,93.45
2017-12-26T01:55:43.310Z,93.08
2017-12-26T01:58:12.336Z,93.25
2017-12-26T02:00:41.068Z,92.89
2017-12-26T02:03:10.464Z,93.33
2017-12-26T02:05:39.979Z,92.89
2017-12-26T02:08:09.439Z,93.74
2017-12-26T02:10:39.868Z,93.40
2017-12-26T02:13:08.473Z,92.88
2017-12-26T02:15:37.129Z,92.94
2017-12-26T02:18:05.816Z,93.13
2017-12-26T02:20:34.788Z,92.46
2017-12-26T02:23:03.501Z,93.90
2017-12-26T02:25:32.084Z,93.46
2017-12-26T02:28:01.076Z,94.00
2017-12-26T02:30:29.812Z,93.19
2017-12-26T02:32:59.269Z,93.58
2017-12-26T02:35:28.054Z,93.54
2017-12-26T02:37:56.741Z,93.59
2017-12-26T02:40:25.425Z,92.70
2017-12-26T02:42:54.200Z,92.27
2017-12-26T02:45:22.894Z,92.97
2017-12-26T02:47:51.533Z,92.74
2017-12-26T02:50:21.026Z,89.94
2017-12-26T02:52:50.489Z,91.54
2017-12-26T02:55:19.136Z,92.58
2017-12-26T02:57:47.900Z,93.62
2017-12-26T03:00:16.592Z,93.64
2017-12-26T03:02:46.055Z,93.72
2017-12-26T03:05:14.807Z,93.68
2017-12-26T03:07:43.425Z,93.65
2017-12-26T03:10:12.013Z,93.75
2017-12-26T03:12:40.896Z,94.87
2017-12-26T03:15:09.527Z,94.41
2017-12-26T03:17:38.992Z,93.52
2017-12-26T03:20:07.668Z,93.89
2017-12-26T03:22:36.364Z,94.16
2017-12-26T03:25:05.153Z,93.79
2017-12-26T03:27:33.933Z,94.24
2017-12-26T03:30:02.590Z,93.89
2017-12-26T03:32:31.304Z,93.72
2017-12-26T03:35:00.041Z,93.61
2017-12-26T03:37:29.366Z,93.83
2017-12-26T03:39:58.027Z,94.65
2017-12-26T03:42:27.497Z,95.05
2017-12-26T03:44:56.060Z,94.61
2017-12-26T03:47:24.954Z,94.43
2017-12-26T03:49:53.543Z,94.53
2017-12-26T03:52:22.218Z,94.65
2017-12-26T03:54:50.861Z,94.36
2017-12-26T03:57:20.619Z,94.38
2017-12-26T03:59:49.273Z,94.58
2017-12-26T04:02:17.991Z,94.96
2017-12-26T04:04:46.677Z,94.88
2017-12-26T04:07:15.364Z,94.48
2017-12-26T04:09:44.046Z,95.06
2017-12-26T04:12:12.944Z,94.80
2017-12-26T04:14:41.629Z,94.26
2017-12-26T04:17:10.296Z,94.53
2017-12-26T04:19:39.063Z,95.29
2017-12-26T04:22:07.785Z,95.11
2017-12-26T04:24:36.423Z,95.04
2017-12-26T04:27:05.916Z,95.42
2017-12-26T04:29:35.340Z,95.41
2017-12-26T04:32:04.063Z,94.93
2017-12-26T04:34:32.668Z,94.62
2017-12-26T04:37:01.336Z,94.44
2017-12-26T04:39:30.120Z,94.05
2017-12-26T04:41:58.819Z,94.14
2017-12-26T04:44:27.492Z,94.39
2017-12-26T04:46:56.178Z,94.41
2017-12-26T04:49:24.872Z,94.65
2017-12-26T04:51:53.544Z,94.44
2017-12-26T04:54:22.185Z,94.64
2017-12-26T04:56:51.803Z,94.38
2017-12-26T04:59:20.446Z,94.28
2017-12-26T05:01:49.215Z,95.06
2017-12-26T05:04:17.881Z,95.06
2017-12-26T05:06:46.549Z,94.47
2017-12-26T05:09:15.272Z,93.62
2017-12-26T05:11:43.956Z,91.49
2017-12-26T05:14:12.644Z,89.65
2017-12-26T05:16:41.301Z,90.45
2017-12-26T05:19:10.168Z,91.46
2017-12-26T05:21:39.622Z,90.94
2017-12-26T05:24:08.309Z,87.11
2017-12-26T05:26:37.038Z,88.52
2017-12-26T05:29:06.458Z,91.44
2017-12-26T05:31:35.901Z,90.61
2017-12-26T05:34:05.816Z,91.25
2017-12-26T05:36:34.461Z,91.83
2017-12-26T05:39:03.154Z,91.96
2017-12-26T05:41:31.874Z,91.02
2017-12-26T05:44:00.460Z,90.69
2017-12-26T05:46:29.107Z,90.28
2017-12-26T05:48:57.833Z,90.84
2017-12-26T05:51:26.471Z,92.70
2017-12-26T05:53:55.204Z,92.61
2017-12-26T05:56:23.989Z,93.23
2017-12-26T05:58:52.575Z,90.71
2017-12-26T06:01:21.163Z,90.17
2017-12-26T06:03:49.948Z,92.91
2017-12-26T06:06:18.528Z,93.81
2017-12-26T06:08:47.214Z,93.52
2017-12-26T06:11:16.410Z,94.25
2017-12-26T06:13:44.996Z,94.30
2017-12-26T06:16:13.668Z,93.30
2017-12-26T06:18:42.774Z,93.90
2017-12-26T06:21:11.430Z,94.49
2017-12-26T06:23:40.147Z,95.42
2017-12-26T06:26:08.832Z,95.35
2017-12-26T06:28:37.420Z,97.50
2017-12-26T06:31:06.009Z,97.23
2017-12-26T06:33:34.714Z,96.41
2017-12-26T06:36:03.356Z,93.33
2017-12-26T06:38:32.049Z,93.85
2017-12-26T06:41:00.935Z,94.42
2017-12-26T06:43:29.587Z,95.08
2017-12-26T06:45:58.307Z,94.69
2017-12-26T06:48:27.348Z,94.20
2017-12-26T06:50:56.808Z,93.11
2017-12-26T06:53:25.481Z,92.08
2017-12-26T06:55:54.387Z,92.42
2017-12-26T06:58:23.020Z,92.73
2017-12-26T07:00:51.687Z,95.12
2017-12-26T07:03:20.754Z,94.55
2017-12-26T07:05:49.484Z,94.27
2017-12-26T07:08:18.072Z,94.42
2017-12-26T07:10:46.807Z,94.77
2017-12-26T07:13:16.265Z,95.64
2017-12-26T07:15:44.820Z,97.57
2017-12-26T07:18:13.428Z,97.31
2017-12-26T07:20:47.489Z,96.75
2017-12-26T07:23:16.945Z,97.26
2017-12-26T07:25:45.630Z,96.46
2017-12-26T07:28:14.254Z,96.95
2017-12-26T07:30:43.769Z,96.33
2017-12-26T07:33:13.217Z,96.22
2017-12-26T07:35:41.909Z,95.93
2017-12-26T07:38:10.902Z,94.64
2017-12-26T07:40:41.633Z,95.99
2017-12-26T07:43:10.307Z,95.98
2017-12-26T07:45:38.951Z,95.49
2017-12-26T07:48:08.411Z,94.65
2017-12-26T07:50:37.090Z,93.80
2017-12-26T07:53:05.994Z,92.58
2017-12-26T07:55:34.670Z,93.04
2017-12-26T07:58:03.313Z,95.61
2017-12-26T08:00:32.809Z,96.04
2017-12-26T08:03:02.269Z,96.21
2017-12-26T08:05:30.942Z,95.84
2017-12-26T08:07:59.687Z,94.93
2017-12-26T08:10:29.034Z,95.26
2017-12-26T08:12:57.622Z,94.24
2017-12-26T08:15:26.511Z,94.05
2017-12-26T08:17:55.197Z,93.03
2017-12-26T08:20:23.882Z,91.76
2017-12-26T08:22:53.600Z,92.21
2017-12-26T08:25:22.286Z,90.69
2017-12-26T08:27:50.925Z,92.83
2017-12-26T08:30:20.621Z,93.94
2017-12-26T08:32:50.075Z,92.49
2017-12-26T08:35:18.762Z,91.94
2017-12-26T08:37:47.368Z,92.72
2017-12-26T08:40:16.091Z,90.30
2017-12-26T08:42:44.818Z,91.95
2017-12-26T08:45:13.812Z,91.27
2017-12-26T08:47:42.444Z,91.79
2017-12-26T08:50:11.907Z,92.36
2017-12-26T08:52:40.692Z,91.17
2017-12-26T08:55:09.378Z,92.72
2017-12-26T08:57:37.956Z,92.10
2017-12-26T09:00:07.008Z,94.08
2017-12-26T09:02:36.455Z,93.07
2017-12-26T09:05:05.042Z,92.45
2017-12-26T09:07:34.134Z,90.65
2017-12-26T09:10:02.820Z,91.70
2017-12-26T09:12:31.407Z,91.11
2017-12-26T09:15:00.338Z,91.27
2017-12-26T09:17:29.756Z,90.94
2017-12-26T09:19:58.486Z,90.11
2017-12-26T09:22:27.477Z,88.02
2017-12-26T09:24:56.109Z,89.40
2017-12-26T09:27:25.575Z,89.49
2017-12-26T09:29:54.457Z,89.55
2017-12-26T09:32:23.822Z,88.61
2017-12-26T09:34:52.508Z,88.92
2017-12-26T09:37:21.184Z,88.39
2017-12-26T09:39:49.880Z,88.76
2017-12-26T09:42:18.566Z,88.24
2017-12-26T09:44:47.351Z,89.73
2017-12-26T09:47:15.994Z,89.42
2017-12-26T09:49:44.722Z,87.63
2017-12-26T09:52:13.455Z,85.65
2017-12-26T09:54:42.916Z,87.63
2017-12-26T09:57:11.537Z,87.28
2017-12-26T09:59:41.307Z,86.24
2017-12-26T10:02:09.994Z,85.64
2017-12-26T10:04:39.503Z,85.43
2017-12-26T10:07:08.183Z,85.25
2017-12-26T10:09:36.824Z,83.58
2017-12-26T10:12:06.312Z,82.47
2017-12-26T10:14:35.839Z,84.38
2017-12-26T10:17:04.567Z,83.86
2017-12-26T10:19:33.256Z,84.17
2017-12-26T10:22:02.292Z,85.57
2017-12-26T10:24:31.643Z,84.65
2017-12-26T10:27:00.232Z,82.95
2017-12-26T10:29:29.735Z,84.25
2017-12-26T10:31:58.426Z,81.42
2017-12-26T10:34:27.111Z,81.66
2017-12-26T10:36:55.789Z,84.80
2017-12-26T10:39:24.491Z,86.66
2017-12-26T10:41:53.058Z,86.07
2017-12-26T10:44:21.799Z,87.28
2017-12-26T10:46:51.255Z,88.03
2017-12-26T10:49:19.940Z,86.86
2017-12-26T10:51:48.933Z,86.00
2017-12-26T10:54:18.134Z,83.97
2017-12-26T10:56:46.819Z,85.34
2017-12-26T10:59:15.495Z,86.04
2017-12-26T11:01:44.192Z,84.06
2017-12-26T11:04:12.866Z,82.70
2017-12-26T11:06:41.969Z,84.33
2017-12-26T11:09:10.654Z,83.44
2017-12-26T11:11:39.341Z,84.19
2017-12-26T11:14:08.391Z,84.23
2017-12-26T11:16:37.034Z,80.89
2017-12-26T11:19:05.699Z,80.75
2017-12-26T11:21:34.443Z,81.26
2017-12-26T11:24:03.899Z,84.36
2017-12-26T11:26:32.585Z,83.81
2017-12-26T11:29:01.776Z,84.98
2017-12-26T11:31:30.417Z,84.13
2017-12-26T11:33:59.148Z,84.11
2017-12-26T11:36:27.943Z,82.47
2017-12-26T11:38:56.615Z,81.70
2017-12-26T11:41:25.309Z,85.54
2017-12-26T11:43:54.000Z,83.54
2017-12-26T11:46:22.668Z,87.78
2017-12-26T11:48:51.395Z,89.74
2017-12-26T11:51:20.013Z,85.26
2017-12-26T11:53:48.714Z,85.01
2017-12-26T11:56:17.393Z,84.40
2017-12-26T11:58:46.137Z,84.88
2017-12-26T12:01:14.865Z,86.01
2017-12-26T12:03:43.550Z,86.74
2017-12-26T12:06:12.237Z,90.94
2017-12-26T12:08:40.856Z,92.59
2017-12-26T12:11:10.321Z,93.07
2017-12-26T12:13:39.063Z,87.51
2017-12-26T12:16:08.515Z,87.45
2017-12-26T12:18:37.092Z,86.87
2017-12-26T12:21:05.845Z,86.34
2017-12-26T12:23:34.573Z,85.27
2017-12-26T12:26:03.258Z,85.27
2017-12-26T12:28:32.043Z,86.41
2017-12-26T12:31:00.691Z,85.91
2017-12-26T12:33:29.414Z,87.75
2017-12-26T12:35:58.100Z,88.18
2017-12-26T12:38:26.744Z,88.36
2017-12-26T12:40:55.392Z,88.66
2017-12-26T12:43:24.157Z,88.84
2017-12-26T12:45:52.843Z,91.76
2017-12-26T12:48:21.490Z,91.89
2017-12-26T12:50:50.080Z,93.05
2017-12-26T12:53:18.750Z,91.83
2017-12-26T12:55:48.201Z,89.86
2017-12-26T12:58:17.160Z,90.13
2017-12-26T13:00:45.878Z,91.16
2017-12-26T13:03:14.521Z,90.45
2017-12-26T13:05:43.214Z,90.34
2017-12-26T13:08:11.882Z,88.42
2017-12-26T13:10:41.346Z,87.62
2017-12-26T13:13:10.518Z,87.80
2017-12-26T13:15:39.224Z,87.58
2017-12-26T13:18:07.810Z,88.69
2017-12-26T13:20:36.706Z,87.04
2017-12-26T13:23:05.386Z,88.53
2017-12-26T13:25:34.077Z,87.50
2017-12-26T13:28:02.924Z,87.73
2017-12-26T13:30:31.646Z,89.80
2017-12-26T13:33:00.285Z,89.55
2017-12-26T13:35:29.779Z,90.63
2017-12-26T13:37:59.196Z,91.82
2017-12-26T13:40:27.926Z,91.17
2017-12-26T13:42:57.006Z,92.77
2017-12-26T13:45:25.715Z,92.19
2017-12-26T13:47:54.293Z,92.29
2017-12-26T13:50:22.982Z,92.96
2017-12-26T13:52:51.626Z,91.31
2017-12-26T13:55:20.349Z,90.40
2017-12-26T13:57:49.863Z,88.63
2017-12-26T14:00:18.605Z,89.00
2017-12-26T14:02:47.328Z,90.06
2017-12-26T14:05:16.265Z,91.18
2017-12-26T14:07:45.732Z,91.75
2017-12-26T14:10:14.307Z,90.60
2017-12-26T14:12:43.243Z,91.20
2017-12-26T14:15:12.658Z,92.32
2017-12-26T14:17:42.107Z,90.35
2017-12-26T14:20:11.100Z,90.33
2017-12-26T14:22:39.784Z,93.97
2017-12-26T14:25:08.472Z,92.32
2017-12-26T14:27:37.465Z,90.82
2017-12-26T14:30:06.143Z,92.69
2017-12-26T14:32:34.835Z,93.08
2017-12-26T14:35:03.529Z,95.81
2017-12-26T14:37:32.205Z,95.50
2017-12-26T14:40:00.885Z,94.20
2017-12-26T14:42:29.481Z,92.39
2017-12-26T14:44:58.175Z,92.70
2017-12-26T14:47:26.867Z,94.56
2017-12-26T14:49:55.636Z,93.44
2017-12-26T14:52:24.302Z,92.14
2017-12-26T14:54:52.994Z,93.69
2017-12-26T14:57:22.099Z,94.73
2017-12-26T14:59:50.685Z,94.32
2017-12-26T15:02:19.379Z,94.28
2017-12-26T15:04:48.257Z,94.62
2017-12-26T15:07:16.951Z,93.90
2017-12-26T15:09:45.574Z,94.77
2017-12-26T15:12:14.994Z,93.71
2017-12-26T15:14:43.714Z,93.72
2017-12-26T15:17:12.408Z,96.52
2017-12-26T15:19:41.401Z,96.31
2017-12-26T15:22:10.185Z,94.89
2017-12-26T15:24:38.772Z,94.42
2017-12-26T15:27:07.666Z,95.52
2017-12-26T15:29:36.339Z,95.25
2017-12-26T15:32:05.040Z,94.15
2017-12-26T15:34:33.822Z,92.22
2017-12-26T15:37:02.447Z,92.03
2017-12-26T15:39:31.807Z,92.16
2017-12-26T15:42:00.592Z,93.11
2017-12-26T15:44:29.277Z,95.39
2017-12-26T15:46:57.963Z,95.96
2017-12-26T15:49:27.111Z,93.76
2017-12-26T15:51:56.567Z,94.20
2017-12-26T15:54:25.197Z,93.83
2017-12-26T15:56:53.985Z,93.06
2017-12-26T15:59:23.445Z,91.63
2017-12-26T16:01:52.130Z,92.16
2017-12-26T16:04:21.220Z,94.53
2017-12-26T16:06:49.808Z,94.62
2017-12-26T16:09:18.368Z,95.09
2017-12-26T16:11:47.246Z,94.04
2017-12-26T16:14:15.914Z,93.14
2017-12-26T16:16:45.372Z,93.27
2017-12-26T16:19:14.098Z,95.45
2017-12-26T16:21:43.557Z,91.52
2017-12-26T16:24:12.276Z,92.28
2017-12-26T16:26:42.002Z,93.05
2017-12-26T16:29:15.098Z,93.91
2017-12-26T16:31:47.207Z,92.80
2017-12-26T16:34:15.892Z,89.61
2017-12-26T16:36:44.522Z,92.09
2017-12-26T16:39:14.185Z,92.27
2017-12-26T16:41:42.871Z,94.52
2017-12-26T16:44:11.557Z,93.89
2017-12-26T16:46:40.351Z,94.96
2017-12-26T16:49:09.038Z,95.40
2017-12-26T16:51:37.613Z,94.88
2017-12-26T16:54:06.715Z,93.54
2017-12-26T16:56:35.407Z,93.02
2017-12-26T16:59:04.081Z,91.94
2017-12-26T17:01:32.773Z,92.20
2017-12-26T17:04:01.457Z,91.86
2017-12-26T17:06:30.142Z,92.43
2017-12-26T17:09:15.106Z,92.10
2017-12-26T17:11:43.795Z,91.38
2017-12-26T17:14:12.481Z,90.53
2017-12-26T17:16:41.156Z,91.37
2017-12-26T17:19:09.852Z,90.56
2017-12-26T17:21:38.539Z,90.12
2017-12-26T17:24:07.421Z,90.44
2017-12-26T17:26:36.061Z,90.71
2017-12-26T17:29:04.692Z,92.67
2017-12-26T17:31:33.587Z,92.58
2017-12-26T17:34:02.164Z,93.59
2017-12-26T17:36:30.849Z,92.60
2017-12-26T17:38:59.536Z,92.12
2017-12-26T17:41:28.220Z,92.36
2017-12-26T17:43:56.904Z,93.32
2017-12-26T17:46:25.898Z,90.76
2017-12-26T17:48:54.537Z,89.95
2017-12-26T17:51:23.993Z,89.92
2017-12-26T17:53:52.724Z,90.62
2017-12-26T17:56:22.177Z,88.53
2017-12-26T17:58:50.862Z,86.56
2017-12-26T18:01:19.657Z,89.04
2017-12-26T18:03:48.342Z,89.11
2017-12-26T18:06:16.918Z,89.95
2017-12-26T18:08:45.604Z,90.48
2017-12-26T18:11:14.248Z,90.51
2017-12-26T18:13:42.940Z,90.78
2017-12-26T18:16:11.704Z,91.71
2017-12-26T18:18:41.190Z,92.07
2017-12-26T18:21:09.868Z,93.36
2017-12-26T18:23:38.638Z,91.40
2017-12-26T18:26:07.324Z,92.51
2017-12-26T18:31:09.512Z,93.65
2017-12-26T18:33:38.209Z,93.71
2017-12-26T18:36:06.768Z,93.54
2017-12-26T18:38:35.642Z,92.29
2017-12-26T18:41:04.352Z,91.80
2017-12-26T18:43:33.038Z,92.72
2017-12-26T18:46:02.031Z,93.59
2017-12-26T18:48:31.545Z,92.89
2017-12-26T18:51:00.630Z,92.95
2017-12-26T18:53:29.426Z,92.52
2017-12-26T18:55:58.063Z,91.79
2017-12-26T18:58:27.511Z,92.39
2017-12-26T19:00:56.673Z,91.69
2017-12-26T19:03:25.396Z,93.84
2017-12-26T19:05:54.182Z,92.81
2017-12-26T19:08:22.880Z,93.63
2017-12-26T19:10:51.547Z,94.92
2017-12-26T19:13:20.191Z,93.61
2017-12-26T19:15:49.848Z,93.84
2017-12-26T19:18:18.420Z,93.58
2017-12-26T19:20:47.116Z,94.03
2017-12-26T19:23:16.084Z,93.46
2017-12-26T19:25:44.751Z,93.76
2017-12-26T19:28:13.480Z,93.39
2017-12-26T19:30:42.265Z,93.85
2017-12-26T19:33:10.950Z,94.15
2017-12-26T19:35:39.529Z,94.70
2017-12-26T19:38:08.320Z,95.31
2017-12-26T19:40:37.007Z,95.11
2017-12-26T19:43:05.682Z,96.31
2017-12-26T19:45:34.587Z,94.56
2017-12-26T19:48:03.169Z,93.71
2017-12-26T19:50:31.848Z,92.97
2017-12-26T19:53:00.800Z,92.77
2017-12-26T19:55:29.526Z,92.72
2017-12-26T19:57:58.343Z,93.35
2017-12-26T20:00:27.413Z,92.15
2017-12-26T20:02:56.101Z,92.62
2017-12-26T20:05:24.740Z,92.40
2017-12-26T20:07:53.568Z,93.29
2017-12-26T20:10:22.200Z,93.51
2017-12-26T20:12:52.381Z,93.49
2017-12-26T20:15:21.062Z,94.06
2017-12-26T20:17:49.804Z,94.37
2017-12-26T20:20:18.532Z,94.63
2017-12-26T20:22:47.489Z,94.78
2017-12-26T20:25:16.157Z,94.90
2017-12-26T20:27:45.620Z,93.69
2017-12-26T20:30:14.296Z,93.84
2017-12-26T20:32:43.914Z,93.29
2017-12-26T20:35:12.599Z,94.51
2017-12-26T20:37:41.384Z,94.17
2017-12-26T20:40:10.063Z,94.61
2017-12-26T20:42:38.707Z,93.26
2017-12-26T20:45:08.195Z,93.26
2017-12-26T20:47:37.616Z,92.84
2017-12-26T20:50:06.285Z,91.84
2017-12-26T20:52:36.055Z,89.60
2017-12-26T20:55:04.694Z,94.24
2017-12-26T20:57:33.424Z,95.43
2017-12-26T21:00:02.417Z,94.79
2017-12-26T21:02:31.048Z,93.73
2017-12-26T21:05:00.516Z,93.67
2017-12-26T21:07:29.112Z,93.42
2017-12-26T21:09:57.847Z,92.86
2017-12-26T21:12:26.516Z,92.67
2017-12-26T21:14:56.211Z,91.93
2017-12-26T21:17:25.673Z,92.03
2017-12-26T21:19:54.359Z,93.19
2017-12-26T21:22:23.315Z,90.01
2017-12-26T21:24:52.008Z,89.80
2017-12-26T21:27:20.723Z,92.01
2017-12-26T21:29:49.412Z,91.88
2017-12-26T21:32:17.998Z,92.48
2017-12-26T21:34:46.582Z,93.46
2017-12-26T21:37:15.921Z,90.48
2017-12-26T21:39:45.380Z,90.74
2017-12-26T21:42:14.067Z,89.94
2017-12-26T21:44:43.051Z,92.25
2017-12-26T21:47:11.744Z,93.00
2017-12-26T21:49:40.386Z,93.38
2017-12-26T21:52:09.027Z,92.46
2017-12-26T21:54:37.701Z,92.75
2017-12-26T21:57:06.338Z,92.79
2017-12-26T21:59:35.827Z,92.64
2017-12-26T22:02:05.190Z,93.50
2017-12-26T22:04:33.882Z,93.30
2017-12-26T22:07:02.609Z,92.95
2017-12-26T22:09:32.027Z,92.63
2017-12-26T22:12:00.751Z,92.20
2017-12-26T22:14:29.484Z,92.28
2017-12-26T22:16:58.945Z,92.59
2017-12-26T22:19:27.630Z,93.56
2017-12-26T22:21:56.416Z,93.27
2017-12-26T22:24:25.058Z,93.83
2017-12-26T22:26:53.794Z,94.46
2017-12-26T22:29:22.472Z,94.21
2017-12-26T22:31:51.059Z,93.04
2017-12-26T22:34:19.704Z,93.33
2017-12-26T22:36:48.796Z,94.88
2017-12-26T22:39:17.522Z,94.64
2017-12-26T22:41:46.207Z,95.37
2017-12-26T22:44:15.200Z,94.03
2017-12-26T22:46:43.886Z,94.14
2017-12-26T22:49:12.472Z,94.06
2017-12-26T22:51:41.466Z,94.30
2017-12-26T22:54:10.152Z,93.76
2017-12-26T22:56:38.728Z,93.03
2017-12-26T22:59:12.814Z,93.06
2017-12-26T23:01:41.414Z,92.69
2017-12-26T23:04:10.141Z,92.51
2017-12-26T23:06:40.013Z,92.23
2017-12-26T23:09:08.651Z,92.69
2017-12-26T23:11:38.097Z,92.08
2017-12-26T23:14:12.359Z,93.02
2017-12-26T23:16:47.252Z,94.74
2017-12-26T23:19:16.037Z,94.77
2017-12-26T23:21:44.715Z,94.11
2017-12-26T23:27:22.342Z,93.75
2017-12-26T23:29:56.380Z,94.47
2017-12-26T23:32:30.668Z,95.24
2017-12-26T23:35:05.226Z,95.31
2017-12-26T23:37:40.120Z,91.96
2017-12-26T23:40:14.590Z,92.40
2017-12-26T23:42:49.571Z,90.41
2017-12-26T23:45:24.095Z,91.54
2017-12-26T23:47:58.307Z,92.31
2017-12-26T23:50:32.681Z,92.10
2017-12-26T23:53:07.661Z,91.13
2017-12-26T23:55:41.778Z,92.17
2017-12-26T23:58:16.091Z,91.09
